Wayne, Illinois
Current Conditions -  °F | °C
As of 10:52 PM on Wednesday 22 Oct 2014 (Local Time) from KDPA Reporting Station
Clear Clear  
Wind Chill: 38°   Ceiling: Unl
Heat Index: 38°   Visibility: 10mi
Dew Point: 33°   Wind: 0mph
Humidity: 83%   Direction: NA
Pressure: 30.27"   Gusts: NA
Location:  41.95°N, 88.24°W
Report Text: KDPA 230352Z 00000KT 10SM CLR 03/01 A3027 RMK AO2 SLP253 T00330006
Loading
Personal Weather Stations






























Interactive Weather Map
Tropical Storm Tracking
New forecast layout! Learn more

10-Day Weather Forecast

Advertisements
Track Severe Weather on mobile